地図

経路データ

SID SEASON NUMBER BASIN SUBBASIN NAME ISO_TIME NATURE LAT LON WMO_WIND WMO_PRES WMO_AGENCY TRACK_TYPE DIST2LAND LANDFALL IFLAG USA_AGENCY USA_ATCF_ID USA_LAT USA_LON USA_RECORD USA_STATUS USA_WIND USA_PRES USA_SSHS USA_R34_NE USA_R34_SE USA_R34_SW USA_R34_NW USA_R50_NE USA_R50_SE USA_R50_SW USA_R50_NW USA_R64_NE USA_R64_SE USA_R64_SW USA_R64_NW USA_POCI USA_ROCI USA_RMW USA_EYE TOKYO_LAT TOKYO_LON TOKYO_GRADE TOKYO_WIND TOKYO_PRES TOKYO_R50_DIR TOKYO_R50_LONG TOKYO_R50_SHORT TOKYO_R30_DIR TOKYO_R30_LONG TOKYO_R30_SHORT TOKYO_LAND CMA_LAT CMA_LON CMA_CAT CMA_WIND CMA_PRES HKO_LAT HKO_LON HKO_CAT HKO_WIND HKO_PRES NEWDELHI_LAT NEWDELHI_LON NEWDELHI_GRADE NEWDELHI_WIND NEWDELHI_PRES NEWDELHI_CI NEWDELHI_DP NEWDELHI_POCI REUNION_LAT REUNION_LON REUNION_TYPE REUNION_WIND REUNION_PRES REUNION_TNUM REUNION_CI REUNION_RMW REUNION_R34_NE REUNION_R34_SE REUNION_R34_SW REUNION_R34_NW REUNION_R50_NE REUNION_R50_SE REUNION_R50_SW REUNION_R50_NW REUNION_R64_NE REUNION_R64_SE REUNION_R64_SW REUNION_R64_NW BOM_LAT BOM_LON BOM_TYPE BOM_WIND BOM_PRES BOM_TNUM BOM_CI BOM_RMW BOM_R34_NE BOM_R34_SE BOM_R34_SW BOM_R34_NW BOM_R50_NE BOM_R50_SE BOM_R50_SW BOM_R50_NW BOM_R64_NE BOM_R64_SE BOM_R64_SW BOM_R64_NW BOM_ROCI BOM_POCI BOM_EYE BOM_POS_METHOD BOM_PRES_METHOD NADI_LAT NADI_LON NADI_CAT NADI_WIND NADI_PRES WELLINGTON_LAT WELLINGTON_LON WELLINGTON_WIND WELLINGTON_PRES DS824_LAT DS824_LON DS824_STAGE DS824_WIND DS824_PRES TD9636_LAT TD9636_LON TD9636_STAGE TD9636_WIND TD9636_PRES TD9635_LAT TD9635_LON TD9635_WIND TD9635_PRES TD9635_ROCI NEUMANN_LAT NEUMANN_LON NEUMANN_CLASS NEUMANN_WIND NEUMANN_PRES MLC_LAT MLC_LON MLC_CLASS MLC_WIND MLC_PRES USA_GUST BOM_GUST BOM_GUST_PER REUNION_GUST REUNION_GUST_PER USA_SEAHGT USA_SEARAD_NE USA_SEARAD_SE USA_SEARAD_SW USA_SEARAD_NW STORM_SPEED STORM_DIR
1904293N26315 1904 41 NA NA NOT_NAMED 1904-10-19 06:00:00 TS 25.8000 -45.4000 35 hurdat_atl main 2235 2187 O_____________ hurdat_atl AL051904 25.8000 -45.4000 TS 35 0 10 227
1904293N26315 1904 41 NA NA NOT_NAMED 1904-10-19 09:00:00 TS 25.4426 -45.8225 main 2183 2122 P_____________ AL051904 25.4426 -45.8225 TS 35 0 11 225
1904293N26315 1904 41 NA NA NOT_NAMED 1904-10-19 12:00:00 TS 25.0000 -46.3000 35 hurdat_atl main 2122 2058 O_____________ hurdat_atl AL051904 25.0000 -46.3000 TS 35 0 14 223
1904293N26315 1904 41 NA NA NOT_NAMED 1904-10-19 15:00:00 TS 24.4224 -46.8702 main 2046 1970 P_____________ AL051904 24.4224 -46.8702 TS 35 0 16 222
1904293N26315 1904 41 NA NA NOT_NAMED 1904-10-19 18:00:00 TS 23.8000 -47.5000 35 hurdat_atl main 1970 1894 O_____________ hurdat_atl AL051904 23.8000 -47.5000 TS 35 0 17 223
1904293N26315 1904 41 NA NA NOT_NAMED 1904-10-19 21:00:00 TS 23.2046 -48.1274 main 1894 1812 P_____________ AL051904 23.2046 -48.1274 TS 35 0 16 227
1904293N26315 1904 41 NA NA NOT_NAMED 1904-10-20 00:00:00 TS 22.7000 -48.8000 35 hurdat_atl main 1812 1732 O_____________ hurdat_atl AL051904 22.7000 -48.8000 TS 35 0 16 235
1904293N26315 1904 41 NA NA NOT_NAMED 1904-10-20 03:00:00 TS 22.2876 -49.5504 main 1722 1647 P_____________ AL051904 22.2876 -49.5504 TS 35 0 15 247
1904293N26315 1904 41 NA NA NOT_NAMED 1904-10-20 06:00:00 TS 22.1000 -50.3000 35 hurdat_atl main 1647 1579 O_____________ hurdat_atl AL051904 22.1000 -50.3000 TS 35 0 14 267
1904293N26315 1904 41 NA NA NOT_NAMED 1904-10-20 09:00:00 TS 22.2176 -51.0164 main 1579 1527 P_____________ AL051904 22.2176 -51.0164 TS 35 0 13 288
1904293N26315 1904 41 NA NA NOT_NAMED 1904-10-20 12:00:00 TS 22.5000 -51.6000 35 hurdat_atl main 1527 1494 O_____________ hurdat_atl AL051904 22.5000 -51.6000 TS 35 0 10 300
1904293N26315 1904 41 NA NA NOT_NAMED 1904-10-20 15:00:00 TS 22.7347 -51.9901 main 1494 1481 P_____________ AL051904 22.7347 -51.9901 TS 35 0 7 312
1904293N26315 1904 41 NA NA NOT_NAMED 1904-10-20 18:00:00 TS 23.0000 -52.2000 35 hurdat_atl main 1484 1478 O_____________ hurdat_atl AL051904 23.0000 -52.2000 TS 35 0 6 332
1904293N26315 1904 41 NA NA NOT_NAMED 1904-10-20 21:00:00 TS 23.2849 -52.3026 main 1485 1485 P_____________ AL051904 23.2849 -52.3026 TS 37 0 6 352
1904293N26315 1904 41 NA NA NOT_NAMED 1904-10-21 00:00:00 TS 23.6000 -52.3000 40 hurdat_atl main 1496 1496 O_____________ hurdat_atl AL051904 23.6000 -52.3000 TS 40 0 7 0
1904293N26315 1904 41 NA NA NOT_NAMED 1904-10-21 03:00:00 TS 23.9425 -52.2725 main 1508 1508 P_____________ AL051904 23.9425 -52.2725 TS 40 0 7 7
1904293N26315 1904 41 NA NA NOT_NAMED 1904-10-21 06:00:00 TS 24.3000 -52.2000 40 hurdat_atl main 1535 1535 O_____________ hurdat_atl AL051904 24.3000 -52.2000 TS 40 0 7 15
1904293N26315 1904 41 NA NA NOT_NAMED 1904-10-21 09:00:00 TS 24.6275 -52.0778 main 1557 1557 P_____________ AL051904 24.6275 -52.0778 TS 42 0 7 15
1904293N26315 1904 41 NA NA NOT_NAMED 1904-10-21 12:00:00 TS 25.0000 -52.0000 45 hurdat_atl main 1585 1585 O_____________ hurdat_atl AL051904 25.0000 -52.0000 TS 45 0 9 2
1904293N26315 1904 41 NA NA NOT_NAMED 1904-10-21 15:00:00 TS 25.4999 -52.0400 main 1609 1605 P_____________ AL051904 25.4999 -52.0400 TS 45 0 10 350
1904293N26315 1904 41 NA NA NOT_NAMED 1904-10-21 18:00:00 TS 26.0000 -52.2000 45 hurdat_atl main 1618 1614 O_____________ hurdat_atl AL051904 26.0000 -52.2000 TS 45 0 9 337
1904293N26315 1904 41 NA NA NOT_NAMED 1904-10-21 21:00:00 TS 26.3650 -52.4552 main 1614 1606 P_____________ AL051904 26.3650 -52.4552 TS 45 0 9 322
1904293N26315 1904 41 NA NA NOT_NAMED 1904-10-22 00:00:00 TS 26.7000 -52.8000 45 hurdat_atl main 1606 1598 O_____________ hurdat_atl AL051904 26.7000 -52.8000 TS 45 0 10 318
1904293N26315 1904 41 NA NA NOT_NAMED 1904-10-22 03:00:00 TS 27.0774 -53.1778 main 1598 1586 P_____________ AL051904 27.0774 -53.1778 TS 45 0 11 318
1904293N26315 1904 41 NA NA NOT_NAMED 1904-10-22 06:00:00 TS 27.5000 -53.6000 45 hurdat_atl main 1592 1589 O_____________ hurdat_atl AL051904 27.5000 -53.6000 TS 45 0 12 319
1904293N26315 1904 41 NA NA NOT_NAMED 1904-10-22 09:00:00 TS 27.9775 -54.0501 main 1589 1588 P_____________ AL051904 27.9775 -54.0501 TS 42 0 13 322
1904293N26315 1904 41 NA NA NOT_NAMED 1904-10-22 12:00:00 TS 28.5000 -54.5000 40 hurdat_atl main 1596 1596 O_____________ hurdat_atl AL051904 28.5000 -54.5000 TS 40 0 13 324
1904293N26315 1904 41 NA NA NOT_NAMED 1904-10-22 15:00:00 TS 29.0123 -54.9083 main 1607 1607 P_____________ AL051904 29.0123 -54.9083 TS 37 0 13 328
1904293N26315 1904 41 NA NA NOT_NAMED 1904-10-22 18:00:00 TS 29.6000 -55.3000 35 hurdat_atl main 1629 1629 O_____________ hurdat_atl AL051904 29.6000 -55.3000 TS 35 0 15 332
1904293N26315 1904 41 NA NA NOT_NAMED 1904-10-22 21:00:00 TS 30.3050 -55.7078 main 1663 1599 P_____________ AL051904 30.3050 -55.7078 TS 35 0 17 335
1904293N26315 1904 41 NA NA NOT_NAMED 1904-10-23 00:00:00 TS 31.1000 -56.1000 35 hurdat_atl main 1599 1507 O_____________ hurdat_atl AL051904 31.1000 -56.1000 TS 35 0 17 338
1904293N26315 1904 41 NA NA NOT_NAMED 1904-10-23 03:00:00 TS 31.8974 -56.4586 main 1502 1411 P_____________ AL051904 31.8974 -56.4586 TS 35 0 18 341
1904293N26315 1904 41 NA NA NOT_NAMED 1904-10-23 06:00:00 TS 32.8000 -56.8000 35 hurdat_atl main 1401 1286 O_____________ hurdat_atl AL051904 32.8000 -56.8000 TS 35 0 21 343
1904293N26315 1904 41 NA NA NOT_NAMED 1904-10-23 09:00:00 TS 33.9002 -57.2007 main 1276 1167 P_____________ AL051904 33.9002 -57.2007 TS 35 0 23 345
1904293N26315 1904 41 NA NA NOT_NAMED 1904-10-23 12:00:00 TS 35.0000 -57.5000 35 hurdat_atl main 1158 1078 O_____________ hurdat_atl AL051904 35.0000 -57.5000 TS 35 0 20 350
1904293N26315 1904 41 NA NA NOT_NAMED 1904-10-23 15:00:00 TS 35.8271 -57.6118 main 1078 1002 P_____________ AL051904 35.8271 -57.6118 TS 35 0 17 0
1904293N26315 1904 41 NA NA NOT_NAMED 1904-10-23 18:00:00 TS 36.7000 -57.5000 35 hurdat_atl main 992 884 O_____________ hurdat_atl AL051904 36.7000 -57.5000 TS 35 0 21 9
1904293N26315 1904 41 NA NA NOT_NAMED 1904-10-23 21:00:00 TS 37.8901 -57.1831 main 873 764 P_____________ AL051904 37.8901 -57.1831 TS 35 0 26 14
1904293N26315 1904 41 NA NA NOT_NAMED 1904-10-24 00:00:00 ET 39.2000 -56.7000 35 hurdat_atl main 758 665 O_____________ hurdat_atl AL051904 39.2000 -56.7000 EX 35 -4 27 17
1904293N26315 1904 41 NA NA NOT_NAMED 1904-10-24 03:00:00 ET 40.4270 -56.2062 main 665 578 P_____________ AL051904 40.4270 -56.2062 EX 35 -4 26 19
1904293N26315 1904 41 NA NA NOT_NAMED 1904-10-24 06:00:00 ET 41.7000 -55.6000 35 hurdat_atl main 566 414 O_____________ hurdat_atl AL051904 41.7000 -55.6000 EX 35 -4 28 20
1904293N26315 1904 41 NA NA NOT_NAMED 1904-10-24 09:00:00 ET 43.0755 -54.9204 main 402 247 P_____________ AL051904 43.0755 -54.9204 EX 35 -4 30 23
1904293N26315 1904 41 NA NA NOT_NAMED 1904-10-24 12:00:00 ET 44.5000 -54.0000 35 hurdat_atl main 235 94 O_____________ hurdat_atl AL051904 44.5000 -54.0000 EX 35 -4 32 30
1904293N26315 1904 41 NA NA NOT_NAMED 1904-10-24 15:00:00 ET 45.8789 -52.6875 main 86 75 P_____________ AL051904 45.8789 -52.6875 EX 35 -4 34 35
1904293N26315 1904 41 NA NA NOT_NAMED 1904-10-24 18:00:00 ET 47.3000 -51.2000 35 hurdat_atl main 107 107 O_____________ hurdat_atl AL051904 47.3000 -51.2000 EX 35 -4 35 33
1904293N26315 1904 41 NA NA NOT_NAMED 1904-10-24 21:00:00 ET 48.8329 -49.8074 main 233 233 P_____________ AL051904 48.8329 -49.8074 EX 35 -4 36 31
1904293N26315 1904 41 NA NA NOT_NAMED 1904-10-25 00:00:00 ET 50.4000 -48.4000 35 hurdat_atl main 383 383 O_____________ hurdat_atl AL051904 50.4000 -48.4000 EX 35 -4 36 31
1904293N26315 1904 41 NA NA NOT_NAMED 1904-10-25 03:00:00 ET 51.9363 -46.9023 main 545 545 P_____________ AL051904 51.9363 -46.9023 EX 35 -4 35 32
1904293N26315 1904 41 NA NA NOT_NAMED 1904-10-25 06:00:00 ET 53.4000 -45.4000 35 hurdat_atl main 686 588 O_____________ hurdat_atl AL051904 53.4000 -45.4000 EX 35 -4 33 32
1904293N26315 1904 41 NA NA NOT_NAMED 1904-10-25 09:00:00 ET 54.7874 -43.9431 main 577 465 P_____________ AL051904 54.7874 -43.9431 EX 35 -4 31 33
1904293N26315 1904 41 NA NA NOT_NAMED 1904-10-25 12:00:00 ET 56.0000 -42.5000 35 hurdat_atl main 455 370 O_____________ hurdat_atl AL051904 56.0000 -42.5000 EX 35 -4 27 37
1904293N26315 1904 41 NA NA NOT_NAMED 1904-10-25 15:00:00 ET 56.9739 -41.0235 main 363 323 P_____________ AL051904 56.9739 -41.0235 EX 35 -4 24 42
1904293N26315 1904 41 NA NA NOT_NAMED 1904-10-25 18:00:00 ET 57.8000 -39.5000 35 hurdat_atl main 326 O_____________ hurdat_atl AL051904 57.8000 -39.5000 EX 35 -4 23 45

IBTrACS Databaseについて

本データベースは、米国NOAAが公開する1842年以降の世界の熱帯低気圧のベストトラックデータアーカイブInternational Best Track Archive for Climate Stewardship (IBTrACS)を、ウェブで閲覧しやすい形式に変換したものです。

最終更新日:2021-11-26